x

Halifax Harbour (44258) Wave Buoy

8:00am - Sat 4th Jul 2015 All times are EDT. -4 hours from GMT.

  • Sig Wave height 4.9ft
  • Peak Period 9s
  • Wind
    7mph, 9mph gusts
  • Air Temp 57°f
  • Sea Pressure 1016.2mb
  • Halifax Harbour
  • Halifax Harbour

More Historic Weather Station data

Upgrade to MSW Pro to gain access to the past 30 days of data for over 8000 Wavebouys and Weather Stations around the globe.

Join Pro

Comparision Forecast

View Surf forecast
   
Sat 07/04 8:00am 5ft 9s 7 9 mph 1016.2mb 57f
7:00am 5ft 10s 9
mph
1015.8mb 56f
6:00am 5ft 8s 11
mph
1015.3mb 56f
5:00am 5ft 10s 9 11 mph 1015mb 56f
4:00am 5ft 9s 9 11 mph 1014.8mb 56f
3:00am 4.5ft 9s 9 11 mph 1014.4mb 56f
2:00am 4.5ft 10s 9 11 mph 1014.2mb 56f
1:00am 5ft 9s 13 16 mph 1013.7mb 58f
12:00am 4ft 10s 13 16 mph 1013.5mb 58f
Fri 07/03 11:00pm 4ft 9s 11 13 mph 1013.2mb 58f
10:00pm 4ft 9s 9
mph
1012.9mb 57f
9:00pm 4ft 10s 9
mph
1012.3mb 59f
8:00pm 4.5ft 9s 11 13 mph 1011.2mb 57f
7:00pm 4.5ft 9s 13
mph
1010.6mb 57f
6:00pm 4.5ft 9s 11 13 mph 1010.3mb 58f
5:00pm 4ft 10s 13 16 mph 1010.4mb 58f
4:00pm 4ft 9s 16 18 mph 1010.1mb 58f
3:00pm 4ft 8s 13 16 mph 1010mb 58f
2:00pm 4.5ft 9s 13 18 mph 1010mb 58f
1:00pm 5ft 9s 13 16 mph 1010mb 57f
12:00pm 5ft 8s 11 13 mph 1009.7mb 56f
11:00am 5ft 8s 4 7 mph 1010mb 56f
10:00am 4.5ft 10s 7
mph
1010.4mb 56f
9:00am 5ft 10s 7
mph
1010.8mb 55f
8:00am 5ft 10s 7 9 mph 1011.1mb 55f
7:00am 5ft 10s 9
mph
1011.6mb 55f
6:00am 4.5ft 10s 9 11 mph 1011.8mb 55f
5:00am 4.5ft 9s 13 16 mph 1011.5mb 55f
4:00am 5ft 8s 13 16 mph 1011.1mb 55f
3:00am 4.5ft 9s 13 18 mph 1011.4mb 55f
2:00am 4.5ft 9s 13
mph
1011.4mb 55f
1:00am 5ft 8s 11 13 mph 1011.6mb 55f
12:00am 5ft 9s 11 13 mph 1011.9mb 56f
Thu 07/02 11:00pm 5ft 9s 11 13 mph 1011.7mb 56f
10:00pm 5.5ft 9s 13 18 mph 1011.8mb 56f
9:00pm 6ft 9s 13 16 mph 1011.7mb 56f
8:00pm 6ft 8s 13 16 mph 1011.2mb 57f
7:00pm 6ft 9s 13 16 mph 1010.8mb 57f
6:00pm 6ft 8s 16 18 mph 1010.6mb 58f
5:00pm 5.5ft 8s 16 20 mph 1010.2mb 58f
4:00pm 6ft 10s 13 18 mph 1010.5mb 57f
3:00pm 5ft 8s 11 13 mph 1010.5mb 56f
2:00pm 5ft 8s 16 18 mph 1010.3mb 54f
1:00pm 5ft 10s 16 18 mph 1010.2mb 54f
12:00pm 5.5ft 10s 18 20 mph 1010.1mb 54f
11:00am  -   -  13
mph
- -
10:00am 5ft 9s 18 22 mph 1010.1mb 55f
9:00am 5ft 9s 16 18 mph 1009.7mb 55f
1:00am 3.5ft 8s 9
mph
1010.9mb 56f
12:00am  -   -  9
mph
1011.1mb 56f
Wed 07/01 11:00pm 3.5ft 8s 7
mph
1011.3mb 56f
10:00pm  -   -  7
mph
- -
8:00pm 3.5ft 8s 13 16 mph 1011.5mb 56f
7:00pm 3.5ft 8s 9 11 mph 1012.7mb 57f
6:00pm 3.5ft 8s 7 9 mph 1012.9mb 57f
5:00pm 3.5ft 9s 4 7 mph 1013.1mb 58f
4:00pm 3.5ft 8s 2
mph
1013.9mb 58f
3:00pm 3.5ft 8s 7 9 mph 1013.9mb 58f
1:00pm 4.5ft 8s 4 7 mph 1015.2mb 57f
12:00pm 4ft 7s 4 7 mph 1016.2mb 56f
11:00am 4.5ft 8s 7 9 mph 1016.1mb 56f
8:00am  -   -   -  mph 1017.1mb 56f
7:00am 4.5ft 8s 4
mph
1017mb 55f
6:00am 5ft 8s 2
mph
1016.6mb 55f
4:00am 4.5ft 8s 7 9 mph 1017mb 54f
3:00am 4.5ft 8s 7 9 mph 1016.8mb 54f
1:00am  -   -  9
mph
- 55f
12:00am 4.5ft 8s 9 11 mph 1016.7mb 55f
Tue 06/30 11:00pm  -   -  9
mph
1016.7mb 54f
9:00pm 5ft 10s 9 13 mph 1015.8mb 54f
8:00pm 5ft 10s 4 7 mph 1015.5mb 55f
6:00pm 5ft 10s 9 11 mph 1015.6mb 55f
5:00pm  -   -  4
mph
1015.8mb 55f
4:00pm 6ft 10s 4 7 mph 1016.2mb 54f
3:00pm  -   -  13
mph
- -
2:00pm 6ft 10s 9 13 mph 1016.4mb 54f